Time;durP1;ratioP1;P1;durP2;ratioP2;P2;SDS_P1;SDS_P2;PMS_P1;PMS_P2;Temp;Humidity;BMP_temperature;BMP_pressure;BME280_temperature;BME280_humidity;BME280_pressure;Samples;Min_cycle;Max_cycle;Signal;HPM_P1;HPM_P2
2021/09/20 00:00:03;;;;;;;0.5;0.5;;;;;;;12.9;93.41309;937.2526;;;;
2021/09/20 00:02:28;;;;;;;0.5;0.5;;;;;;;12.82;93.27148;937.2031;;;;
2021/09/20 00:04:53;;;;;;;0.6;0.6;;;;;;;12.74;94.33301;937.135;;;;
2021/09/20 00:07:18;;;;;;;0.7;0.7;;;;;;;12.78;93.9043;937.218;;;;
2021/09/20 00:09:44;;;;;;;0.7;0.7;;;;;;;12.82;93.63867;937.2239;;;;
2021/09/20 00:12:09;;;;;;;1.4;0.6;;;;;;;12.82;93.86621;937.1864;;;;
2021/09/20 00:14:35;;;;;;;1.6;0.8;;;;;;;12.82;94.15527;937.1935;;;;
2021/09/20 00:17:00;;;;;;;1.8;1.2;;;;;;;12.82;94.22168;937.2015;;;;
2021/09/20 00:19:26;;;;;;;1;0.9;;;;;;;12.79;94.5166;937.1669;;;;
2021/09/20 00:21:51;;;;;;;1;0.8;;;;;;;12.77;94.93555;937.2436;;;;
2021/09/20 00:24:46;;;;;;;1.2;1;;;;;;;12.76;95.15137;937.1766;;;;
2021/09/20 00:27:12;;;;;;;1.2;1.1;;;;;;;12.8;94.73438;937.1414;;;;
2021/09/20 00:29:37;;;;;;;1.6;1;;;;;;;12.86;94.6084;937.1752;;;;
2021/09/20 00:32:02;;;;;;;1.7;0.8;;;;;;;12.83;94.40723;937.1552;;;;
2021/09/20 00:34:27;;;;;;;1.5;0.9;;;;;;;12.84;93.90625;937.2047;;;;
2021/09/20 00:36:52;;;;;;;0.7;0.7;;;;;;;12.85;93.98828;937.1144;;;;
2021/09/20 00:39:32;;;;;;;0.8;0.8;;;;;;;12.79;94.33105;937.1884;;;;
2021/09/20 00:41:58;;;;;;;0.5;0.5;;;;;;;12.81;94.19727;937.1948;;;;
2021/09/20 00:44:23;;;;;;;1.5;0.5;;;;;;;12.8;93.89648;937.1014;;;;
2021/09/20 00:46:49;;;;;;;0.4;0.4;;;;;;;12.78;93.76465;937.1294;;;;
2021/09/20 00:49:15;;;;;;;0.5;0.5;;;;;;;12.77;93.93652;937.0519;;;;
2021/09/20 00:51:40;;;;;;;1;0.5;;;;;;;12.74;93.81641;937.0831;;;;
2021/09/20 00:54:05;;;;;;;0.4;0.4;;;;;;;12.78;93.53711;937.123;;;;
2021/09/20 00:56:30;;;;;;;1.9;0.6;;;;;;;12.78;93.60352;937.1205;;;;
2021/09/20 00:58:56;;;;;;;0.4;0.4;;;;;;;12.81;93.93262;937.1638;;;;
2021/09/20 01:01:21;;;;;;;0.8;0.7;;;;;;;12.83;94.37305;937.16;;;;
2021/09/20 01:03:49;;;;;;;1.2;0.9;;;;;;;12.82;94.6582;937.152;;;;
2021/09/20 01:06:15;;;;;;;0.5;0.5;;;;;;;12.81;94.89746;937.1805;;;;
2021/09/20 01:08:40;;;;;;;0.9;0.8;;;;;;;12.82;94.75195;937.18;;;;
2021/09/20 01:11:07;;;;;;;0.8;0.8;;;;;;;12.76;95.38086;937.1981;;;;
2021/09/20 01:13:32;;;;;;;1.1;0.8;;;;;;;12.76;95.6084;937.2101;;;;
2021/09/20 01:15:59;;;;;;;1.3;0.8;;;;;;;12.8;95.45801;937.1342;;;;
2021/09/20 01:18:24;;;;;;;0.6;0.6;;;;;;;12.74;95.13379;937.2269;;;;
2021/09/20 01:20:51;;;;;;;0.8;0.8;;;;;;;12.73;95.90039;937.2589;;;;
2021/09/20 01:23:38;;;;;;;0.8;0.6;;;;;;;12.81;95.54004;937.2444;;;;
2021/09/20 01:26:04;;;;;;;1.7;0.6;;;;;;;12.84;95.38477;937.2559;;;;
2021/09/20 01:28:57;;;;;;;0.6;0.6;;;;;;;12.82;95.56445;937.3317;;;;
2021/09/20 01:31:23;;;;;;;0.7;0.4;;;;;;;12.79;95.4668;937.3483;;;;
2021/09/20 01:33:48;;;;;;;0.7;0.7;;;;;;;12.83;95.19922;937.327;;;;
2021/09/20 01:36:14;;;;;;;1.7;0.8;;;;;;;12.81;95.36816;937.4001;;;;
2021/09/20 01:38:39;;;;;;;1;0.7;;;;;;;12.8;95.28516;937.3619;;;;
2021/09/20 01:41:06;;;;;;;1.2;0.7;;;;;;;12.81;94.75977;937.3466;;;;
2021/09/20 01:43:30;;;;;;;0.5;0.5;;;;;;;12.8;94.90625;937.3635;;;;
2021/09/20 01:45:55;;;;;;;0.5;0.5;;;;;;;12.81;94.71387;937.3786;;;;
2021/09/20 01:48:20;;;;;;;0.5;0.5;;;;;;;12.86;93.81836;937.3222;;;;
2021/09/20 01:50:45;;;;;;;0.5;0.5;;;;;;;12.91;93.96582;937.3141;;;;
2021/09/20 01:53:11;;;;;;;0.8;0.8;;;;;;;12.95;93.66602;937.3844;;;;
2021/09/20 01:55:36;;;;;;;2.2;1.1;;;;;;;12.85;93.83984;937.3373;;;;
2021/09/20 01:58:02;;;;;;;1;0.9;;;;;;;12.8;94.33301;937.3834;;;;
2021/09/20 02:00:26;;;;;;;2.2;1.1;;;;;;;12.84;93.98438;937.3821;;;;
2021/09/20 02:02:51;;;;;;;1.1;1;;;;;;;12.76;94.33691;937.3228;;;;
2021/09/20 02:05:18;;;;;;;1.2;1;;;;;;;12.66;95.01465;937.3459;;;;
2021/09/20 02:07:43;;;;;;;0.8;0.8;;;;;;;12.66;95.09473;937.3835;;;;
2021/09/20 02:10:09;;;;;;;1.2;1.1;;;;;;;12.62;95.56738;937.3491;;;;
2021/09/20 02:12:33;;;;;;;1.3;1.1;;;;;;;12.67;95.25781;937.4003;;;;
2021/09/20 02:14:59;;;;;;;1.2;1.1;;;;;;;12.69;95.25977;937.4299;;;;
2021/09/20 02:19:49;;;;;;;2.2;1.6;;;;;;;12.78;94.76465;937.4753;;;;
2021/09/20 02:22:15;;;;;;;1.3;1.2;;;;;;;12.79;95.0332;937.4738;;;;
2021/09/20 02:24:40;;;;;;;2;1.7;;;;;;;12.78;95.12109;937.5017;;;;
2021/09/20 02:27:05;;;;;;;2.6;2;;;;;;;12.83;94.72852;937.5236;;;;
2021/09/20 02:29:30;;;;;;;2.7;2;;;;;;;12.81;94.89746;937.5105;;;;
2021/09/20 02:31:55;;;;;;;3.1;2.4;;;;;;;12.78;95.36035;937.5497;;;;
2021/09/20 02:34:21;;;;;;;3.2;2.4;;;;;;;12.75;95.0459;937.4994;;;;
2021/09/20 02:36:46;;;;;;;3.6;2.5;;;;;;;12.81;94.85156;937.473;;;;
2021/09/20 02:39:13;;;;;;;3.5;2.7;;;;;;;12.82;94.79785;937.4764;;;;
2021/09/20 02:41:38;;;;;;;4.8;3.2;;;;;;;12.79;94.87012;937.5289;;;;
2021/09/20 02:44:03;;;;;;;4.9;3.7;;;;;;;12.77;95.01563;937.4761;;;;
2021/09/20 02:46:28;;;;;;;6;4.1;;;;;;;12.77;95.10742;937.5441;;;;
2021/09/20 02:48:54;;;;;;;5.3;3.4;;;;;;;12.81;94.83984;937.4961;;;;
2021/09/20 02:51:18;;;;;;;5.9;3.7;;;;;;;12.76;95.19531;937.576;;;;
2021/09/20 02:53:44;;;;;;;6.3;3.8;;;;;;;12.69;95.77832;937.5408;;;;
2021/09/20 02:56:09;;;;;;;5.3;3;;;;;;;12.74;95.92578;937.5145;;;;
2021/09/20 02:58:34;;;;;;;2.5;2;;;;;;;12.76;95.59863;937.4985;;;;
2021/09/20 03:00:59;;;;;;;1.6;1.5;;;;;;;12.71;95.78223;937.5536;;;;
2021/09/20 03:03:24;;;;;;;2.1;1.7;;;;;;;12.67;95.39551;937.5544;;;;
2021/09/20 03:05:49;;;;;;;2;1.5;;;;;;;12.66;96.01074;937.5887;;;;
2021/09/20 03:08:16;;;;;;;1.2;1.1;;;;;;;12.64;95.40137;937.6191;;;;
2021/09/20 03:10:41;;;;;;;1.6;1.3;;;;;;;12.65;95.17188;937.5944;;;;
2021/09/20 03:13:08;;;;;;;2.2;1.2;;;;;;;12.63;95.15625;937.6175;;;;
2021/09/20 03:15:43;;;;;;;1.3;1.2;;;;;;;12.66;94.81738;937.5577;;;;
2021/09/20 03:18:08;;;;;;;1.6;1.5;;;;;;;12.69;94.61914;937.616;;;;
2021/09/20 03:20:33;;;;;;;1.7;1.6;;;;;;;12.7;94.56348;937.6495;;;;
2021/09/20 03:23:01;;;;;;;1.7;1.5;;;;;;;12.68;94.84473;937.6719;;;;
2021/09/20 03:25:26;;;;;;;1.7;1.2;;;;;;;12.74;94.51465;937.6975;;;;
2021/09/20 03:27:52;;;;;;;1.9;1.3;;;;;;;12.76;94.0957;937.6758;;;;
2021/09/20 03:30:17;;;;;;;0.9;0.9;;;;;;;12.78;94.01758;937.6847;;;;
2021/09/20 03:32:44;;;;;;;1.3;1.1;;;;;;;12.71;93.76074;937.628;;;;
2021/09/20 03:35:09;;;;;;;1.7;1.2;;;;;;;12.69;94.03223;937.711;;;;
2021/09/20 03:37:34;;;;;;;1.2;1.1;;;;;;;12.67;94.27051;937.7094;;;;
2021/09/20 03:39:59;;;;;;;1.9;1;;;;;;;12.66;94.26855;937.6535;;;;
2021/09/20 03:42:25;;;;;;;1;0.9;;;;;;;12.63;94.61719;937.6926;;;;
2021/09/20 03:44:50;;;;;;;1.1;1;;;;;;;12.62;94.89063;937.7478;;;;
2021/09/20 03:47:32;;;;;;;1;0.9;;;;;;;12.62;95.17676;937.743;;;;
2021/09/20 03:50:00;;;;;;;1.1;1;;;;;;;12.62;94.90137;937.7494;;;;
2021/09/20 03:52:25;;;;;;;0.8;0.8;;;;;;;12.59;95.05664;937.7594;;;;
2021/09/20 03:54:50;;;;;;;0.6;0.6;;;;;;;12.58;94.54785;937.8161;;;;
2021/09/20 03:57:17;;;;;;;0.5;0.5;;;;;;;12.6;94.26465;937.8017;;;;
2021/09/20 03:59:44;;;;;;;0.6;0.6;;;;;;;12.56;94.5;937.8943;;;;
2021/09/20 04:02:31;;;;;;;0.8;0.8;;;;;;;12.58;94.24902;937.8928;;;;
2021/09/20 04:04:56;;;;;;;1;0.9;;;;;;;12.6;93.88867;937.904;;;;
2021/09/20 04:07:24;;;;;;;1.2;0.7;;;;;;;12.55;94.54199;937.8672;;;;
2021/09/20 04:09:48;;;;;;;0.7;0.7;;;;;;;12.57;94.62793;937.8833;;;;
2021/09/20 04:12:13;;;;;;;0.8;0.8;;;;;;;12.53;95.00781;937.88;;;;
2021/09/20 04:14:39;;;;;;;1.6;0.9;;;;;;;12.58;95.16699;937.9239;;;;
2021/09/20 04:17:04;;;;;;;1;0.9;;;;;;;12.56;94.96973;937.9551;;;;
2021/09/20 04:19:29;;;;;;;1.2;0.9;;;;;;;12.6;94.53027;937.9495;;;;
2021/09/20 04:21:54;;;;;;;1.5;1;;;;;;;12.66;94.11816;937.985;;;;
2021/09/20 04:24:20;;;;;;;1.1;1;;;;;;;12.64;94.10254;938.017;;;;
2021/09/20 04:26:45;;;;;;;1.3;1.2;;;;;;;12.62;94.16699;938.0145;;;;
2021/09/20 04:29:11;;;;;;;1.7;1.1;;;;;;;12.67;94.18848;938.0673;;;;
2021/09/20 04:31:36;;;;;;;2.2;1.3;;;;;;;12.63;94.63965;938.0856;;;;
2021/09/20 04:34:04;;;;;;;1.9;1.3;;;;;;;12.62;94.84473;938.0984;;;;
2021/09/20 04:36:29;;;;;;;1.8;1.4;;;;;;;12.62;95.00488;938.0377;;;;
2021/09/20 04:38:54;;;;;;;1.3;1.2;;;;;;;12.56;95.28027;938.0956;;;;
2021/09/20 04:41:22;;;;;;;1.7;1.3;;;;;;;12.55;95.12695;938.1005;;;;
2021/09/20 04:43:47;;;;;;;1.3;1.2;;;;;;;12.56;95.06152;938.0909;;;;
2021/09/20 04:46:14;;;;;;;1.6;1.3;;;;;;;12.54;95.04492;938.1331;;;;
2021/09/20 04:48:39;;;;;;;1.7;1.1;;;;;;;12.63;94.66309;938.1192;;;;
2021/09/20 04:51:06;;;;;;;0.7;0.7;;;;;;;12.68;93.19434;938.1384;;;;
2021/09/20 04:53:31;;;;;;;0.4;0.4;;;;;;;12.65;93.54199;938.1831;;;;
2021/09/20 04:55:56;;;;;;;0.3;0.3;;;;;;;12.6;93.03711;938.1931;;;;
2021/09/20 04:58:21;;;;;;;1.2;0.5;;;;;;;12.62;93.53613;938.1926;;;;
2021/09/20 05:00:46;;;;;;;0.6;0.6;;;;;;;12.61;92.9248;938.194;;;;
2021/09/20 05:03:12;;;;;;;0.6;0.6;;;;;;;12.59;93.84082;938.2978;;;;
2021/09/20 05:05:37;;;;;;;0.3;0.3;;;;;;;12.69;93.04688;938.2726;;;;
2021/09/20 05:08:02;;;;;;;0.2;0.2;;;;;;;12.62;93.19238;938.2606;;;;
2021/09/20 05:10:29;;;;;;;0.5;0.5;;;;;;;12.31;94.9834;938.2626;;;;
2021/09/20 05:12:54;;;;;;;0.6;0.5;;;;;;;12.23;95.61914;938.2551;;;;
2021/09/20 05:15:22;;;;;;;0.7;0.5;;;;;;;12.21;95.83301;938.2463;;;;
2021/09/20 05:17:47;;;;;;;0.7;0.7;;;;;;;12.22;96.32617;938.3293;;;;
2021/09/20 05:20:13;;;;;;;0.7;0.7;;;;;;;12.33;96.36328;938.3641;;;;
2021/09/20 05:22:38;;;;;;;2.2;1;;;;;;;12.38;95.90527;938.3546;;;;
2021/09/20 05:25:03;;;;;;;1.3;0.8;;;;;;;12.44;95.55273;938.3583;;;;
2021/09/20 05:27:28;;;;;;;1.2;0.9;;;;;;;12.31;96.03809;938.3592;;;;
2021/09/20 05:29:53;;;;;;;2.8;1;;;;;;;12.25;96.49414;938.3901;;;;
2021/09/20 05:32:18;;;;;;;0.8;0.8;;;;;;;12.17;96.90039;938.38;;;;
2021/09/20 05:34:44;;;;;;;1.2;1.1;;;;;;;12.15;96.96484;938.3752;;;;
2021/09/20 05:37:10;;;;;;;1.4;1.3;;;;;;;12.28;97.00488;938.3375;;;;
2021/09/20 05:39:35;;;;;;;1.2;1.1;;;;;;;12.42;96.21191;938.4164;;;;
2021/09/20 05:42:00;;;;;;;1.6;1.3;;;;;;;12.49;96.30762;938.3815;;;;
2021/09/20 05:44:25;;;;;;;1.3;1.2;;;;;;;12.6;95.7334;938.3769;;;;
2021/09/20 05:46:51;;;;;;;1.5;0.9;;;;;;;12.63;95.57129;938.3741;;;;
2021/09/20 05:49:16;;;;;;;1.1;0.7;;;;;;;12.68;95.07422;938.3797;;;;
2021/09/20 05:51:42;;;;;;;0.8;0.8;;;;;;;12.71;95.12988;938.4182;;;;
2021/09/20 05:54:08;;;;;;;1.9;0.6;;;;;;;12.73;94.99609;938.4469;;;;
2021/09/20 05:56:34;;;;;;;0.7;0.5;;;;;;;12.84;94.50098;938.4641;;;;
2021/09/20 05:58:58;;;;;;;0.9;0.6;;;;;;;12.93;93.57031;938.4354;;;;
2021/09/20 06:01:25;;;;;;;1;0.8;;;;;;;12.97;93.69043;938.4817;;;;
2021/09/20 06:06:15;;;;;;;1.1;1;;;;;;;13.13;92.54492;938.3958;;;;
2021/09/20 06:08:41;;;;;;;2.1;1;;;;;;;13.13;93.65918;938.5269;;;;
2021/09/20 06:11:06;;;;;;;0.7;0.7;;;;;;;13.1;93.00977;938.5437;;;;
2021/09/20 06:13:32;;;;;;;0.7;0.7;;;;;;;13.12;93.05957;938.5045;;;;
2021/09/20 06:15:56;;;;;;;1.5;1.3;;;;;;;13.11;92.92969;938.5253;;;;
2021/09/20 06:18:22;;;;;;;2.3;1.5;;;;;;;13.14;92.69434;938.5069;;;;
2021/09/20 06:20:48;;;;;;;2.7;2.4;;;;;;;13.15;93.17871;938.5564;;;;
2021/09/20 06:23:13;;;;;;;3.7;2.5;;;;;;;13.23;93.24316;938.577;;;;
2021/09/20 06:25:39;;;;;;;1.3;1;;;;;;;13.17;92.59863;938.5684;;;;
2021/09/20 06:28:04;;;;;;;1;0.8;;;;;;;13.33;92.64453;938.6058;;;;
2021/09/20 06:30:29;;;;;;;1.2;1.1;;;;;;;13.24;93.00391;938.601;;;;
2021/09/20 06:32:54;;;;;;;2.1;1;;;;;;;13.23;93.72656;938.6314;;;;
2021/09/20 06:35:19;;;;;;;1.2;1;;;;;;;13.27;92.48145;938.5793;;;;
2021/09/20 06:37:44;;;;;;;1.4;0.9;;;;;;;13.22;92.64258;938.5619;;;;
2021/09/20 06:40:09;;;;;;;1.5;1;;;;;;;13.27;93.125;938.6035;;;;
2021/09/20 06:42:36;;;;;;;1.1;1;;;;;;;13.34;92.2998;938.585;;;;
2021/09/20 06:45:01;;;;;;;1.7;1.2;;;;;;;13.44;91.98926;938.5851;;;;
2021/09/20 06:47:26;;;;;;;2.2;1.4;;;;;;;13.48;91.12305;938.5683;;;;
2021/09/20 06:49:51;;;;;;;1.9;1.5;;;;;;;13.56;90.63477;938.5626;;;;
2021/09/20 06:52:16;;;;;;;1.9;1.5;;;;;;;13.61;90.18555;938.5889;;;;
2021/09/20 06:54:42;;;;;;;2.9;1.4;;;;;;;13.66;90.57422;938.6188;;;;
2021/09/20 06:57:07;;;;;;;35.8;23.7;;;;;;;13.73;90.67969;938.6273;;;;
2021/09/20 06:59:32;;;;;;;2.5;1.5;;;;;;;13.79;90.25781;938.6448;;;;
2021/09/20 07:01:58;;;;;;;1.6;1;;;;;;;13.81;90.1582;938.5751;;;;
2021/09/20 07:04:23;;;;;;;1.4;1.1;;;;;;;13.84;89.70313;938.5914;;;;
2021/09/20 07:06:48;;;;;;;4;1.3;;;;;;;13.77;89.82617;938.6208;;;;
2021/09/20 07:09:15;;;;;;;1.2;1.1;;;;;;;13.84;90.21094;938.6234;;;;
2021/09/20 07:11:40;;;;;;;1.8;0.8;;;;;;;13.87;89.9043;938.5561;;;;
2021/09/20 07:14:07;;;;;;;0.8;0.8;;;;;;;13.95;88.87598;938.6398;;;;
2021/09/20 07:16:32;;;;;;;1.2;0.9;;;;;;;13.91;89.34961;938.656;;;;
2021/09/20 07:18:57;;;;;;;0.8;0.8;;;;;;;13.93;88.82422;938.6728;;;;
2021/09/20 07:21:24;;;;;;;0.6;0.6;;;;;;;13.83;89.9541;938.7107;;;;
2021/09/20 07:23:48;;;;;;;0.5;0.5;;;;;;;13.91;89.29199;938.6864;;;;
2021/09/20 07:26:14;;;;;;;0.8;0.6;;;;;;;13.84;88.12891;938.7106;;;;
2021/09/20 07:28:39;;;;;;;0.8;0.7;;;;;;;13.96;89.02734;938.8072;;;;
2021/09/20 07:31:05;;;;;;;0.5;0.5;;;;;;;14;88.68945;938.7742;;;;
2021/09/20 07:33:30;;;;;;;1.5;0.6;;;;;;;14.11;88.63281;938.8663;;;;
2021/09/20 07:35:58;;;;;;;2;0.9;;;;;;;14.14;87.0957;938.8582;;;;
2021/09/20 07:38:23;;;;;;;1.4;0.8;;;;;;;14.18;85.70801;938.8756;;;;
2021/09/20 07:40:48;;;;;;;2.8;0.9;;;;;;;14.27;86.00391;938.91;;;;
2021/09/20 07:43:14;;;;;;;1.5;0.7;;;;;;;14.42;86.02246;938.8809;;;;
2021/09/20 07:45:40;;;;;;;0.9;0.5;;;;;;;14.57;83.88574;938.8628;;;;
2021/09/20 07:48:04;;;;;;;1.2;0.8;;;;;;;14.71;82.65527;938.8769;;;;
2021/09/20 07:50:30;;;;;;;1.8;0.9;;;;;;;14.79;83.9375;938.8933;;;;
2021/09/20 07:52:55;;;;;;;0.4;0.4;;;;;;;15.02;84.49023;938.8908;;;;
2021/09/20 07:55:20;;;;;;;0.4;0.3;;;;;;;15.29;84.06934;938.8314;;;;
2021/09/20 07:57:46;;;;;;;6.6;1.7;;;;;;;15.38;81.06152;938.9253;;;;
2021/09/20 08:00:11;;;;;;;4.5;0.9;;;;;;;15.68;80.37695;938.902;;;;
2021/09/20 08:02:36;;;;;;;0.9;0.4;;;;;;;15.64;79.39844;938.9722;;;;
2021/09/20 08:05:01;;;;;;;0.5;0.3;;;;;;;15.83;80.21875;938.9492;;;;
2021/09/20 08:07:27;;;;;;;1.1;0.4;;;;;;;15.89;78.82227;938.9492;;;;
2021/09/20 08:09:52;;;;;;;1.6;0.5;;;;;;;15.65;78.26953;938.9609;;;;
2021/09/20 08:12:17;;;;;;;0.8;0.4;;;;;;;15.41;77.75293;939.0158;;;;
2021/09/20 08:14:43;;;;;;;1.1;0.5;;;;;;;15.52;79.37695;939.0553;;;;
2021/09/20 08:17:07;;;;;;;2;0.6;;;;;;;15.39;77.10254;939.04;;;;
2021/09/20 08:19:32;;;;;;;0.9;0.2;;;;;;;15.26;78.4873;939.0314;;;;
2021/09/20 08:21:59;;;;;;;0.3;0.3;;;;;;;14.85;78.77148;939.0552;;;;
2021/09/20 08:24:29;;;;;;;0.2;0.2;;;;;;;15.38;79.65137;939.0818;;;;
2021/09/20 08:26:54;;;;;;;0.2;0.2;;;;;;;15.7;77.07617;939.0352;;;;
2021/09/20 08:29:20;;;;;;;0.3;0.3;;;;;;;15.95;77.58496;939.0691;;;;
2021/09/20 08:31:45;;;;;;;0.4;0.3;;;;;;;16.16;76.8916;939.097;;;;
2021/09/20 08:34:11;;;;;;;0.3;0.3;;;;;;;16.18;77.6709;939.1481;;;;
2021/09/20 08:36:36;;;;;;;0.8;0.3;;;;;;;16.35;75.35254;939.1563;;;;
2021/09/20 08:39:03;;;;;;;0.8;0.2;;;;;;;16.54;74.7002;939.1631;;;;
2021/09/20 08:41:28;;;;;;;0.3;0.3;;;;;;;16.58;75.72754;939.1811;;;;
2021/09/20 08:43:54;;;;;;;0.4;0.4;;;;;;;16.59;71.25977;939.1216;;;;
2021/09/20 08:46:20;;;;;;;0.2;0.2;;;;;;;16.57;70.88477;939.1426;;;;
2021/09/20 08:48:47;;;;;;;0.1;0.1;;;;;;;16.76;70.70801;939.1715;;;;
2021/09/20 08:51:12;;;;;;;0.5;0.3;;;;;;;16.62;71.90137;939.185;;;;
2021/09/20 08:53:37;;;;;;;0.1;0.1;;;;;;;16.64;68.79102;939.2008;;;;
2021/09/20 08:56:02;;;;;;;0.6;0.3;;;;;;;16.72;70.55078;939.2009;;;;
2021/09/20 08:58:28;;;;;;;0.4;0.3;;;;;;;17;71.67383;939.1227;;;;
2021/09/20 09:00:53;;;;;;;1.4;0.4;;;;;;;17.24;67.39844;939.2068;;;;
2021/09/20 09:03:19;;;;;;;0.4;0.4;;;;;;;17.51;70.2373;939.1973;;;;
2021/09/20 09:05:45;;;;;;;0.6;0.4;;;;;;;17.82;69.78711;939.2012;;;;
2021/09/20 09:08:10;;;;;;;0.4;0.4;;;;;;;17.53;70.64551;939.2075;;;;
2021/09/20 09:10:35;;;;;;;0.6;0.4;;;;;;;18.08;66.77344;939.1976;;;;
2021/09/20 09:13:00;;;;;;;0.3;0.3;;;;;;;18.4;65.54395;939.2291;;;;
2021/09/20 09:15:25;;;;;;;0.5;0.4;;;;;;;18.74;63.09277;939.1944;;;;
2021/09/20 09:17:52;;;;;;;0.9;0.4;;;;;;;18.81;62.19434;939.2366;;;;
2021/09/20 09:20:17;;;;;;;0.6;0.5;;;;;;;18.92;66.31934;939.2336;;;;
2021/09/20 09:22:43;;;;;;;0.4;0.4;;;;;;;18.78;63.29688;939.2048;;;;
2021/09/20 09:25:07;;;;;;;0.9;0.5;;;;;;;18.8;64.33398;939.181;;;;
2021/09/20 09:27:33;;;;;;;0.9;0.4;;;;;;;18.89;64.62598;939.1576;;;;
2021/09/20 09:29:58;;;;;;;0.7;0.7;;;;;;;18.61;65.22461;939.127;;;;
2021/09/20 09:32:23;;;;;;;0.7;0.6;;;;;;;18.76;64.375;939.1802;;;;
2021/09/20 09:34:49;;;;;;;0.7;0.7;;;;;;;18.62;64.62109;939.2115;;;;
2021/09/20 09:37:15;;;;;;;1;0.8;;;;;;;18.58;65.66309;939.1381;;;;
2021/09/20 09:39:40;;;;;;;0.8;0.8;;;;;;;18.36;66.88477;939.1494;;;;
2021/09/20 09:42:05;;;;;;;0.8;0.7;;;;;;;18.55;64.95117;939.1854;;;;
2021/09/20 09:44:30;;;;;;;1.8;0.7;;;;;;;18.46;68.02734;939.1188;;;;
2021/09/20 09:46:55;;;;;;;0.6;0.6;;;;;;;18.37;70.1084;939.1136;;;;
2021/09/20 09:49:20;;;;;;;0.7;0.7;;;;;;;18.53;66.74902;939.1891;;;;
2021/09/20 09:51:45;;;;;;;0.8;0.6;;;;;;;18.83;66.46875;939.1089;;;;
2021/09/20 09:54:12;;;;;;;1.7;0.7;;;;;;;18.96;67.13965;939.1167;;;;
2021/09/20 09:56:37;;;;;;;0.4;0.4;;;;;;;18.29;67.9209;939.0596;;;;
2021/09/20 09:59:02;;;;;;;0.7;0.3;;;;;;;18.39;67.29688;939.0803;;;;
2021/09/20 10:01:27;;;;;;;0.4;0.3;;;;;;;18.33;67.62402;939.1064;;;;
2021/09/20 10:03:52;;;;;;;0.5;0.5;;;;;;;18.37;68.21289;939.1024;;;;
2021/09/20 10:06:17;;;;;;;0.5;0.5;;;;;;;18.1;69.59961;939.0701;;;;
2021/09/20 10:08:42;;;;;;;0.8;0.5;;;;;;;18.8;67.52344;939.0616;;;;
2021/09/20 10:11:07;;;;;;;0.9;0.4;;;;;;;19.81;63.24512;939.0298;;;;
2021/09/20 10:13:33;;;;;;;0.5;0.5;;;;;;;19.41;65.18164;939.0053;;;;
2021/09/20 10:15:58;;;;;;;0.5;0.5;;;;;;;18.9;67.56055;939.0428;;;;
2021/09/20 10:18:23;;;;;;;1.1;0.4;;;;;;;18.74;67.96582;939.0403;;;;
2021/09/20 10:20:48;;;;;;;0.5;0.5;;;;;;;18.09;71.42188;939.0961;;;;
2021/09/20 10:23:14;;;;;;;2.2;0.7;;;;;;;17.73;73.80078;939.0526;;;;
2021/09/20 10:25:39;;;;;;;0.9;0.6;;;;;;;18.25;68.75195;939.0927;;;;
2021/09/20 10:28:05;;;;;;;0.4;0.4;;;;;;;18.3;68.875;939.1078;;;;
2021/09/20 10:30:30;;;;;;;0.5;0.5;;;;;;;18.53;66.85352;939.0261;;;;
2021/09/20 10:32:57;;;;;;;0.6;0.5;;;;;;;18.36;69.22266;939.0413;;;;
2021/09/20 10:35:22;;;;;;;0.6;0.6;;;;;;;18.58;67.96582;939.0413;;;;
2021/09/20 10:37:48;;;;;;;1.2;0.7;;;;;;;18.56;66.96289;939.0553;;;;
2021/09/20 10:40:13;;;;;;;0.6;0.6;;;;;;;18.66;66.54688;939.0151;;;;
2021/09/20 10:42:40;;;;;;;1.7;0.7;;;;;;;18.26;68.96289;939.0086;;;;
2021/09/20 10:45:04;;;;;;;0.8;0.8;;;;;;;17.83;70.4502;938.9885;;;;
2021/09/20 10:47:29;;;;;;;0.8;0.8;;;;;;;17.56;71.39355;938.9994;;;;
2021/09/20 10:49:55;;;;;;;1;0.9;;;;;;;17.87;70.30664;938.9747;;;;
2021/09/20 10:52:19;;;;;;;0.8;0.8;;;;;;;18.16;68.44727;938.8972;;;;
2021/09/20 10:54:47;;;;;;;0.7;0.7;;;;;;;18.08;68.88672;938.9504;;;;
2021/09/20 10:57:12;;;;;;;1.6;0.7;;;;;;;18.47;67.53027;938.9339;;;;
2021/09/20 10:59:37;;;;;;;1.7;1;;;;;;;18.2;67.3623;938.9254;;;;
2021/09/20 11:02:04;;;;;;;1;0.9;;;;;;;18.3;67.55078;938.916;;;;
2021/09/20 11:04:29;;;;;;;1.7;1;;;;;;;18.05;70.5332;938.892;;;;
2021/09/20 11:06:54;;;;;;;1.1;1;;;;;;;17.73;71.79395;938.9261;;;;
2021/09/20 11:09:19;;;;;;;1.3;0.9;;;;;;;19.23;64.82617;938.8206;;;;
2021/09/20 11:11:44;;;;;;;1.1;1;;;;;;;20.06;64.32031;938.8412;;;;
2021/09/20 11:14:10;;;;;;;1.3;1.2;;;;;;;20.58;62.78418;938.8231;;;;
2021/09/20 11:16:36;;;;;;;2.7;1.6;;;;;;;21.45;61.71289;938.8669;;;;
2021/09/20 11:19:01;;;;;;;1.4;1.3;;;;;;;21.87;57.81055;938.8232;;;;
2021/09/20 11:21:26;;;;;;;1.4;1.3;;;;;;;22.07;56.94629;938.8323;;;;
2021/09/20 11:23:51;;;;;;;1.4;1.3;;;;;;;22.7;55.27734;938.7933;;;;
2021/09/20 11:26:16;;;;;;;1.2;1.1;;;;;;;22.31;57.1875;938.7288;;;;
2021/09/20 11:28:42;;;;;;;1.8;1.3;;;;;;;23.12;52.48535;938.7695;;;;
2021/09/20 11:31:08;;;;;;;1.3;1.2;;;;;;;22.99;51.77832;938.8074;;;;
2021/09/20 11:33:33;;;;;;;1.5;1.4;;;;;;;22.57;55.37988;938.748;;;;
2021/09/20 11:35:59;;;;;;;1.4;1.3;;;;;;;22.46;55.88086;938.7619;;;;
2021/09/20 11:38:25;;;;;;;1.4;1.3;;;;;;;21.04;61.51465;938.7419;;;;
2021/09/20 11:40:50;;;;;;;1.3;1.2;;;;;;;21.41;56.97754;938.6517;;;;
2021/09/20 11:43:15;;;;;;;1.4;1.3;;;;;;;21.75;56.06055;938.5952;;;;
2021/09/20 11:45:40;;;;;;;2.1;1.3;;;;;;;22.04;55.45313;938.658;;;;
2021/09/20 11:48:05;;;;;;;1.9;1.5;;;;;;;22.24;54.42285;938.7045;;;;
2021/09/20 11:50:31;;;;;;;1.5;1.4;;;;;;;22.4;52.80078;938.7808;;;;
2021/09/20 11:52:56;;;;;;;1.4;1.3;;;;;;;21.52;55.61035;938.6995;;;;
2021/09/20 11:55:23;;;;;;;1.5;1.4;;;;;;;21.12;55.85449;938.7313;;;;
2021/09/20 11:57:48;;;;;;;2;1.6;;;;;;;20.83;57.18457;938.7455;;;;
2021/09/20 12:00:16;;;;;;;1.7;1.6;;;;;;;20.57;57.37207;938.6569;;;;
2021/09/20 12:02:42;;;;;;;2;1.6;;;;;;;20.97;56.72363;938.6691;;;;
2021/09/20 12:05:10;;;;;;;1.4;1.3;;;;;;;20.86;57.90234;938.7186;;;;
2021/09/20 12:07:36;;;;;;;1.7;1.4;;;;;;;20.49;57.67871;938.6817;;;;
2021/09/20 12:10:00;;;;;;;1.6;1.4;;;;;;;20.16;60.36621;938.7004;;;;
2021/09/20 12:12:25;;;;;;;1.4;1.3;;;;;;;21.15;57.38965;938.6316;;;;
2021/09/20 12:14:50;;;;;;;1.4;1.3;;;;;;;21.6;57.31934;938.6895;;;;
2021/09/20 12:17:15;;;;;;;1.3;1.2;;;;;;;22.7;53.59863;938.7462;;;;
2021/09/20 12:19:41;;;;;;;1.2;1.1;;;;;;;25.45;45.13184;938.6143;;;;
2021/09/20 12:22:06;;;;;;;1.5;1.4;;;;;;;25.41;46.54492;938.6404;;;;
2021/09/20 12:24:32;;;;;;;1.3;1.2;;;;;;;26.83;41.04102;938.6945;;;;
2021/09/20 12:26:58;;;;;;;0.9;0.9;;;;;;;26.05;42.36426;938.6788;;;;
2021/09/20 12:29:23;;;;;;;1.3;1.2;;;;;;;25.93;41.97559;938.6703;;;;
2021/09/20 12:31:52;;;;;;;1.3;1.2;;;;;;;26.41;42.28027;938.6961;;;;
2021/09/20 12:34:17;;;;;;;2.1;1.1;;;;;;;26.32;41.69336;938.6375;;;;
2021/09/20 12:36:42;;;;;;;1.3;1.2;;;;;;;26.81;42.23535;938.6127;;;;
2021/09/20 12:39:07;;;;;;;1.3;1.2;;;;;;;28.33;38.70508;938.6423;;;;
2021/09/20 12:41:32;;;;;;;1.2;1.1;;;;;;;28.7;38.73633;938.621;;;;
2021/09/20 12:43:57;;;;;;;1.2;1.1;;;;;;;28.39;37.43848;938.5361;;;;
2021/09/20 12:46:22;;;;;;;1.2;1.1;;;;;;;27.99;37.71387;938.621;;;;
2021/09/20 12:48:47;;;;;;;1.3;1.2;;;;;;;28.74;36.74121;938.6365;;;;
2021/09/20 12:51:14;;;;;;;1.1;1;;;;;;;29.96;34.28809;938.5639;;;;
2021/09/20 12:53:39;;;;;;;0.8;0.8;;;;;;;30.57;33.89258;938.6271;;;;
2021/09/20 12:56:05;;;;;;;1.2;1.1;;;;;;;31.14;33.26465;938.6564;;;;
2021/09/20 12:58:30;;;;;;;29.3;5.3;;;;;;;31.23;31.73926;938.6072;;;;
2021/09/20 13:00:55;;;;;;;123.5;30.4;;;;;;;31.28;31.92285;938.6621;;;;
2021/09/20 13:03:26;;;;;;;300.9;56.6;;;;;;;30.95;32.10352;938.7245;;;;
2021/09/20 13:05:45;;;;;;;631.4;162.3;;;;;;;31.09;32.2207;938.7245;;;;
2021/09/20 13:08:10;;;;;;;1999.9;512.8;;;;;;;31.07;33.02051;938.7611;;;;
2021/09/20 13:10:37;;;;;;;1839.6;490;;;;;;;30.62;32.35547;938.6881;;;;
2021/09/20 13:13:01;;;;;;;921.1;222.6;;;;;;;30.4;33.13867;938.6369;;;;
2021/09/20 13:15:26;;;;;;;1071.3;302.2;;;;;;;31.08;32.44727;938.6672;;;;
2021/09/20 13:17:53;;;;;;;1486.7;415.4;;;;;;;30.7;32.61133;938.7177;;;;
2021/09/20 13:20:17;;;;;;;1283.9;302.2;;;;;;;29.59;34.00879;938.6763;;;;
2021/09/20 13:22:43;;;;;;;1301.4;248.9;;;;;;;27.57;37.48926;938.7145;;;;
2021/09/20 13:25:08;;;;;;;1413.1;326.8;;;;;;;27.33;39.03418;938.7772;;;;
2021/09/20 13:27:36;;;;;;;1301.9;329;;;;;;;27;39.70508;938.745;;;;
2021/09/20 13:30:01;;;;;;;1660.3;371.4;;;;;;;27.54;38.22168;938.7914;;;;
2021/09/20 13:32:26;;;;;;;1999.9;906.7;;;;;;;28.23;36.09375;938.7952;;;;
2021/09/20 13:34:51;;;;;;;1999.9;999.9;;;;;;;27.36;37.82715;938.8176;;;;
2021/09/20 13:37:18;;;;;;;1999.9;835.6;;;;;;;26.44;39.98633;938.8738;;;;
2021/09/20 13:39:43;;;;;;;509.9;110.5;;;;;;;26.32;40.30859;938.8994;;;;
2021/09/20 13:42:09;;;;;;;777.3;168.1;;;;;;;26.67;38.90625;938.8833;;;;
2021/09/20 13:44:34;;;;;;;514.2;115.8;;;;;;;26.72;39.10059;938.9241;;;;
2021/09/20 13:47:00;;;;;;;969.5;218.2;;;;;;;25.85;40.92676;938.9266;;;;
2021/09/20 13:49:25;;;;;;;320;62.6;;;;;;;24.38;43.57422;938.9498;;;;
2021/09/20 13:51:51;;;;;;;2.1;1.6;;;;;;;23.6;45.20313;938.9034;;;;
2021/09/20 13:54:16;;;;;;;247.7;26.1;;;;;;;22.63;47.31152;939.0466;;;;
2021/09/20 13:56:43;;;;;;;1.7;1.4;;;;;;;22.16;49.03223;938.9339;;;;
2021/09/20 13:59:08;;;;;;;1.6;1.5;;;;;;;23.68;45.78809;939.0447;;;;
2021/09/20 14:01:33;;;;;;;1.9;1.7;;;;;;;23.98;44.55859;939.0823;;;;
2021/09/20 14:03:58;;;;;;;1.6;1.5;;;;;;;24.18;45.80371;939.0639;;;;
2021/09/20 14:06:23;;;;;;;1.5;1.4;;;;;;;24.1;45.63086;939.0925;;;;
2021/09/20 14:08:49;;;;;;;1.6;1.5;;;;;;;22.74;49.02441;939.1353;;;;
2021/09/20 14:11:15;;;;;;;1.8;1.7;;;;;;;23.79;46.84766;939.1083;;;;
2021/09/20 14:13:39;;;;;;;22.6;2.3;;;;;;;23.4;47.51074;939.1831;;;;
2021/09/20 14:16:05;;;;;;;2.3;1.5;;;;;;;22.91;47.54102;939.1401;;;;